Atmautluak, AK

4:15 PM AKDT on August 27, 2015 (GMT -0800)
Nunapitchuk AP, Nunapitchuk, | | Change Station
CLOSE
Current Station
Airport
Location: Nunapitchuk AP, Nunapitchuk,,
Elevation: 13 ft
Nearby Weather Stations

Elev 13 ft 60.91 °N, 162.44 °W | Updated 19 minutes ago

Overcast
Overcast
51 °F
Feels Like 51 °F
N
17
Wind Variable Wind from NNW

Today
High -- | Low -- °F
--% Chance of Precip.
Yesterday
High -- | Low -- °F
Precip. -- in
7:31 AM 10:11 PM
Waxing Gibbous, 95% visible
Pressure 30.28 in
Visibility 10.0 miles
Clouds Overcast 3000 ft
Dew Point 40 °F
Humidity 66%
Rainfall 0.00 in
Snow Depth Not available.
UV 1 out of 12
Pollen Not available.
Air Quality Not available.
Flu Activity Not available.
METAR PPIT 272356Z AUTO 34015KT 10SM OVC030 11/04 A3028 RMK AO2 SLP252 60000 T01060044 10106 20078 50010
Pressure 30.28 in
Visibility 10.0 miles
Clouds Overcast 3000 ft
Dew Point 40 °F
Humidity 66%
Rainfall 0.00 in
Snow Depth Not available.
UV 1 out of 12
Pollen Not available.
Air Quality Not available.
Flu Activity Not available.
METAR PPIT 272356Z AUTO 34015KT 10SM OVC030 11/04 A3028 RMK AO2 SLP252 60000 T01060044 10106 20078 50010

10-Day Weather Forecast

×

Almanac

Astronomy

Aug. 27, 2015 Rise Set
Actual Time
Civil Twilight
Nautical Twilight
Astronomical Twilight
Moon
Length of Visible Light
Length of Day
Tomorrow will be .
, % of the Moon is Illuminated

Today's Extremes

State Highs State Lows

Community

WunderPhotos

Upload Photos

1,850,272 photos uploaded!

WunderBlogs® & News

Nearby

Air Quality

  Air Quality AQ Index Pollutant
Not available.

Snow Depth

Station Depth Elevation

Earthquake Activity

City Distance Mag. Time & Date
Minimum magnitude displayed is 2.5.

Coastal Water Temperatures

Place Temperature

Stations

Nearby Weather Stations

Station Location Temp. Windchill Dew Point Humidity Wind Precip. Elev Updated Type